Latest Weather Observations for Garden Island

IDW60801

Issued at 1:53 pm WST Sunday 15 September 2019 (issued every 10 minutes, with the page automatically refreshed every 10 minutes)

About weather observations | Map of weather stations | Latest weather observations for WA | Other Formats
Station Details ID: 009256 Name: GARDEN ISLAND HSF Lat: -32.24 Lon: 115.68 Height: 6.0 m
Data from the previous 72 hours. | See also: Recent months at Garden Island
Date/Time
WST
Temp
°C
App
Temp
°C
Dew
Point
°C
Rel
Hum
%
Delta-T
°C
Wind Press
QNH
hPa
Press
MSL
hPa
Rain since
9am
mm
Dir  Spd
km/h
Gust
km/h
Spd
kts
Gust
kts
15/01:30pm 17.9 13.8 13.8 77 2.3 SSW 28 33 15 18 1023.4 1023.4 0.0
15/01:00pm 18.1 14.7 13.8 76 2.4 SSW 24 30 13 16 1023.7 1023.7 0.0
15/12:30pm 18.0 14.8 13.1 73 2.8 SSW 22 26 12 14 1024.1 1024.1 0.0
15/12:00pm 18.1 15.2 14.0 77 2.3 SSW 22 26 12 14 1024.3 1024.3 0.0
15/11:30am 17.7 15.0 13.4 76 2.4 SSW 20 24 11 13 1024.6 1024.6 0.0
15/11:00am 17.2 14.3 12.9 76 2.4 SSW 20 24 11 13 1024.9 1024.9 0.0
15/10:30am 17.2 15.0 13.3 78 2.2 SSW 17 20 9 11 1025.1 1025.1 0.0
15/10:00am 16.9 14.3 13.2 79 2.1 SSW 19 22 10 12 1025.2 1025.2 0.0
15/09:30am 16.2 14.0 12.0 76 2.3 S 15 20 8 11 1025.3 1025.3 0.0
15/09:00am 15.8 12.8 12.0 78 2.1 SSE 19 22 10 12 1025.5 1025.5 0.0
15/08:30am 15.6 12.5 12.2 80 1.9 SSE 20 24 11 13 1025.4 1025.4 0.0
15/08:00am 15.0 11.3 11.4 79 1.9 SSE 22 24 12 13 1025.2 1025.2 0.0
15/07:30am 14.8 11.8 11.8 82 1.6 SSE 19 22 10 12 1025.1 1025.1 0.0
15/07:00am 14.3 11.2 11.5 83 1.5 SSE 19 22 10 12 1024.8 1024.8 0.0
15/06:30am 14.4 10.9 10.8 79 1.9 SSE 20 22 11 12 1024.5 1024.5 0.0
15/06:00am 14.8 11.3 11.0 78 2.0 SSE 20 22 11 12 1024.2 1024.2 0.0
15/05:30am 14.8 11.5 11.6 81 1.7 SSE 20 22 11 12 1023.9 1023.9 0.0
15/05:00am 15.1 11.8 11.7 80 1.8 SSE 20 24 11 13 1023.7 1023.7 0.0
15/04:30am 15.2 11.8 11.4 78 2.0 SSE 20 24 11 13 1023.7 1023.7 0.0
15/04:00am 15.5 11.9 11.7 78 2.0 SSE 22 26 12 14 1023.6 1023.6 0.0
15/03:30am 15.9 11.9 11.9 77 2.2 SSE 24 30 13 16 1023.7 1023.7 0.0
15/03:00am 16.3 12.1 12.3 77 2.2 SSE 26 30 14 16 1023.9 1023.9 0.0
15/02:30am 16.4 10.9 12.0 75 2.4 S 32 37 17 20 1023.7 1023.7 0.0
15/02:00am 16.5 11.0 12.3 76 2.3 S 33 39 18 21 1023.7 1023.7 0.0
15/01:30am 16.7 10.7 12.0 74 2.6 S 35 43 19 23 1023.5 1023.5 0.0
15/01:00am 16.9 11.6 13.0 78 2.2 S 33 39 18 21 1023.7 1023.7 0.0
15/12:30am 17.1 12.0 13.2 78 2.2 S 32 35 17 19 1023.7 1023.7 0.0
15/12:00am 17.0 11.7 12.5 75 2.5 S 32 39 17 21 1023.7 1023.7 0.0
 
Date/Time
WST
Temp
°C
App
Temp
°C
Dew
Point
°C
Rel
Hum
%
Delta-T
°C
Wind Press
QNH
hPa
Press
MSL
hPa
Rain since
9am
mm
Dir  Spd
km/h
Gust
km/h
Spd
kts
Gust
kts
14/11:30pm 17.5 12.7 14.0 80 2.0 S 32 39 17 21 1023.7 1023.7 0.0
14/11:00pm 17.6 13.7 14.5 82 1.8 S 28 32 15 17 1023.5 1023.5 0.0
14/10:30pm 17.7 13.8 14.4 81 1.9 S 28 32 15 17 1023.4 1023.4 0.0
14/10:00pm 17.9 13.6 14.4 80 2.0 S 30 33 16 18 1023.6 1023.6 0.0
14/09:30pm 17.9 13.3 14.6 81 1.9 SSW 32 39 17 21 1024.2 1024.2 0.0
14/09:00pm 18.0 13.4 14.5 80 2.0 SSW 32 39 17 21 1024.3 1024.3 0.0
14/08:30pm 18.1 14.2 15.5 85 1.5 SSW 30 35 16 19 1024.4 1024.4 0.0
14/08:00pm 18.3 15.2 16.5 89 1.1 SSW 28 33 15 18 1023.8 1023.8 0.0
14/07:30pm 18.3 14.8 16.6 90 1.0 S 30 33 16 18 1023.3 1023.3 0.0
14/07:00pm 18.4 15.3 16.6 89 1.1 S 28 32 15 17 1022.9 1022.9 0.0
14/06:30pm 18.6 16.4 16.8 89 1.1 SSW 24 28 13 15 1022.8 1022.8 0.0
14/06:00pm 18.7 16.5 16.9 89 1.1 SSW 24 28 13 15 1022.5 1022.5 0.0
14/05:30pm 18.7 17.3 16.9 89 1.1 SSW 20 26 11 14 1022.2 1022.2 0.0
14/05:00pm 18.8 18.0 17.1 90 1.0 SSW 17 20 9 11 1022.1 1022.1 0.0
14/04:30pm 19.0 17.8 17.0 88 1.2 SSW 19 20 10 11 1022.0 1022.0 0.0
14/04:00pm 19.5 18.2 17.3 87 1.3 SSW 20 26 11 14 1022.1 1022.1 0.0
14/03:30pm 19.4 18.3 17.4 88 1.2 SSW 19 22 10 12 1022.1 1022.1 0.0
14/03:00pm 19.8 19.1 17.4 86 1.5 SSW 17 20 9 11 1022.0 1022.0 0.0
14/02:30pm 19.5 18.9 17.6 89 1.2 SSW 17 19 9 10 1022.2 1022.2 0.0
14/02:00pm 19.3 18.4 17.8 91 0.9 SSW 19 20 10 11 1022.4 1022.4 0.0
14/01:30pm 19.7 18.3 18.0 90 1.0 SSW 22 26 12 14 1022.6 1022.6 0.0
14/01:00pm 19.5 18.0 17.6 89 1.2 SSW 22 26 12 14 1022.8 1022.8 0.0
14/12:30pm 20.9 21.1 17.7 82 2.0 WSW 13 15 7 8 1023.1 1023.1 0.0
14/12:00pm 21.5 22.8 18.5 83 1.9 W 9 11 5 6 1023.1 1023.1 0.0
14/11:30am 21.2 22.0 18.2 83 1.9 NW 11 13 6 7 1023.5 1023.5 0.0
14/11:00am 20.9 22.2 18.5 86 1.5 NW 9 11 5 6 1023.5 1023.5 0.0
14/10:30am 20.8 22.0 18.2 85 1.6 WNW 9 11 5 6 1023.9 1023.9 0.0
14/10:00am 20.4 22.2 18.7 90 1.1 N 7 9 4 5 1024.1 1024.1 0.0
14/09:30am 19.8 21.5 18.5 92 0.8 N 7 9 4 5 1024.2 1024.2 0.0
14/09:00am 19.4 21.3 18.6 95 0.5 NE 6 7 3 4 1023.9 1023.9 0.2
14/08:30am 18.7 21.5 18.0 96 0.4 CALM 0 0 0 0 1023.9 1023.9 0.2
14/08:00am 17.9 19.1 17.3 96 0.4 NE 7 9 4 5 1023.7 1023.7 0.2
14/07:30am 18.0 20.7 17.7 98 0.2 CALM 0 6 0 3 1023.2 1023.2 0.2
14/07:00am 16.7 17.1 16.4 98 0.2 NE 9 11 5 6 1022.8 1022.8 0.2
14/06:30am 16.6 16.2 16.3 98 0.2 NNE 13 19 7 10 1022.5 1022.5 0.2
14/06:00am 16.6 16.2 16.3 98 0.2 NNE 13 15 7 8 1022.3 1022.3 0.2
14/05:30am 15.2 15.1 14.9 98 0.2 ENE 9 13 5 7 1022.1 1022.1 0.2
14/05:00am 15.3 15.5 14.8 97 0.3 ENE 7 9 4 5 1021.9 1021.9 0.2
14/04:30am 16.0 16.6 15.7 98 0.2 ENE 7 9 4 5 1021.6 1021.6 0.2
14/04:00am 15.8 15.8 15.3 97 0.3 E 9 11 5 6 1021.6 1021.6 0.2
14/03:30am 16.2 18.1 15.7 97 0.3 CALM 0 0 0 0 1021.5 1021.5 0.2
14/03:00am 15.4 16.2 14.9 97 0.3 ENE 4 7 2 4 1021.8 1021.8 0.2
14/02:30am 14.9 16.3 14.3 96 0.3 CALM 0 0 0 0 1021.3 1021.3 0.2
14/02:00am 16.2 17.3 15.7 97 0.3 ENE 4 7 2 4 1021.4 1021.4 0.2
14/01:30am 16.3 17.5 16.0 98 0.2 ENE 4 6 2 3 1021.3 1021.3 0.2
14/01:00am 15.6 15.6 15.1 97 0.3 E 9 11 5 6 1021.1 1021.1 0.2
14/12:30am 15.7 16.9 14.9 95 0.5 E 2 6 1 3 1022.0 1022.0 0.2
14/12:00am 16.2 16.7 15.6 96 0.3 E 7 9 4 5 1021.9 1021.9 0.2
 
Date/Time
WST
Temp
°C
App
Temp
°C
Dew
Point
°C
Rel
Hum
%
Delta-T
°C
Wind Press
QNH
hPa
Press
MSL
hPa
Rain since
9am
mm
Dir  Spd
km/h
Gust
km/h
Spd
kts
Gust
kts
13/11:30pm 16.4 16.5 15.6 95 0.5 E 9 11 5 6 1022.3 1022.3 0.2
13/11:00pm 17.8 19.4 17.0 95 0.5 S 4 7 2 4 1022.5 1022.5 0.2
13/10:30pm 17.9 19.2 17.1 95 0.5 S 6 7 3 4 1022.6 1022.6 0.2
13/10:00pm 19.0 20.2 18.3 96 0.4 SSW 9 11 5 6 1023.0 1023.0 0.2
13/09:30pm 19.0 19.9 18.3 96 0.4 SSW 11 13 6 7 1023.1 1023.1 0.2
13/09:00pm 19.0 19.8 18.2 95 0.5 SSW 11 13 6 7 1022.9 1022.9 0.2
13/08:30pm 18.9 20.4 18.1 95 0.5 SSW 7 9 4 5 1022.9 1022.9 0.2
13/08:00pm 18.9 20.3 17.9 94 0.6 SSW 7 9 4 5 1022.8 1022.8 0.2
13/07:30pm 19.0 20.1 18.0 94 0.6 SSW 9 11 5 6 1022.6 1022.6 0.2
13/07:00pm 19.0 19.3 17.8 93 0.7 SSW 13 15 7 8 1022.3 1022.3 0.2
13/06:30pm 19.0 20.0 17.8 93 0.7 SSW 9 11 5 6 1022.0 1022.0 0.2
13/06:00pm 19.2 19.9 17.9 92 0.8 SSW 11 13 6 7 1021.5 1021.5 0.2
13/05:30pm 19.5 20.2 18.0 91 0.9 SSW 11 11 6 6 1021.5 1021.5 0.2
13/05:00pm 19.7 20.5 17.3 86 1.5 SW 9 11 5 6 1021.6 1021.6 0.2
13/04:30pm 20.4 21.4 17.8 85 1.6 SW 9 9 5 5 1021.5 1021.5 0.2
13/04:00pm 20.5 21.6 17.9 85 1.6 SW 9 11 5 6 1021.3 1021.3 0.2
13/03:30pm 20.2 21.1 17.6 85 1.6 SSW 9 11 5 6 1021.0 1021.0 0.2
13/03:00pm 21.1 22.4 18.5 85 1.6 SSW 9 11 5 6 1021.4 1021.4 0.2
13/02:30pm 20.4 21.1 18.0 86 1.5 SSW 11 13 6 7 1021.5 1021.5 0.2
13/02:00pm 20.6 20.9 18.0 85 1.6 SW 13 17 7 9 1022.0 1022.0 0.2
13/01:30pm 20.8 20.4 17.2 80 2.2 WSW 15 20 8 11 1022.3 1022.3 0.2
13/01:00pm 20.9 20.9 17.3 80 2.2 W 13 17 7 9 1022.5 1022.5 0.2
13/12:30pm 21.1 21.0 16.9 77 2.6 WNW 13 15 7 8 1022.8 1022.8 0.2
13/12:00pm 20.9 21.1 16.7 77 2.5 WNW 11 13 6 7 1022.9 1022.9 0.2
13/11:30am 20.4 20.8 16.2 77 2.5 W 9 11 5 6 1022.9 1022.9 0.2
13/11:00am 20.3 21.0 17.1 82 1.9 E 9 11 5 6 1023.3 1023.3 0.2
13/10:30am 19.7 20.6 16.7 83 1.8 ENE 7 9 4 5 1023.5 1023.5 0.2
13/10:00am 19.9 21.3 17.3 85 1.6 ENE 6 7 3 4 1023.7 1023.7 0.0
13/09:30am 18.7 19.5 16.3 86 1.4 ENE 7 7 4 4 1023.9 1023.9 0.0
13/09:00am 18.7 19.6 16.7 88 1.2 ENE 7 9 4 5 1024.1 1024.1 0.0
13/08:30am 18.4 19.5 17.1 92 0.8 ENE 7 9 4 5 1024.3 1024.3 0.0
13/08:00am 17.3 17.9 16.7 96 0.4 ENE 9 9 5 5 1024.2 1024.2 0.0
13/07:30am 16.5 17.2 16.2 98 0.2 ENE 7 11 4 6 1024.1 1024.1 0.0
13/07:00am 15.1 15.0 14.9 99 0.1 NE 9 9 5 5 1023.9 1023.9 0.0
13/06:30am 14.4 14.4 14.2 99 0.1 NE 7 9 4 5 1023.7 1023.7 0.0
13/06:00am 13.8 13.2 13.5 98 0.2 NE 9 9 5 5 1023.5 1023.5 0.0
13/05:30am 13.2 12.7 12.7 97 0.3 NE 7 9 4 5 1023.3 1023.3 0.0
13/05:00am 13.6 14.6 13.1 97 0.3 CALM 0 0 0 0 1023.1 1023.1 0.0
13/04:30am 14.0 13.8 13.5 97 0.3 NE 7 9 4 5 1022.8 1022.8 0.0
13/04:00am 15.5 16.0 15.0 97 0.3 NE 6 7 3 4 1022.5 1022.5 0.0
13/03:30am 14.3 14.1 13.7 96 0.3 NE 7 7 4 4 1022.5 1022.5 0.0
13/03:00am 15.3 15.7 14.8 97 0.3 NE 6 7 3 4 1022.6 1022.6 0.0
13/02:30am 15.5 15.8 15.0 97 0.3 NE 7 9 4 5 1022.7 1022.7 0.0
13/02:00am 15.8 15.4 15.3 97 0.3 NE 11 13 6 7 1023.0 1023.0 0.0
13/01:30am 16.2 16.0 15.7 97 0.3 ENE 11 13 6 7 1023.3 1023.3 0.0
13/01:00am 16.1 15.9 15.6 97 0.3 ENE 11 13 6 7 1023.5 1023.5 0.0
13/12:30am 16.4 16.7 15.9 97 0.3 ENE 9 13 5 7 1023.9 1023.9 0.0
13/12:00am 16.2 16.0 15.7 97 0.3 ENE 11 13 6 7 1024.0 1024.0 0.0
 
Date/Time
WST
Temp
°C
App
Temp
°C
Dew
Point
°C
Rel
Hum
%
Delta-T
°C
Wind Press
QNH
hPa
Press
MSL
hPa
Rain since
9am
mm
Dir  Spd
km/h
Gust
km/h
Spd
kts
Gust
kts
12/11:30pm 16.3 16.5 15.7 96 0.4 ENE 9 11 5 6 1024.2 1024.2 0.0
12/11:00pm 16.4 16.6 15.8 96 0.3 ENE 9 11 5 6 1024.3 1024.3 0.0
12/10:30pm 16.0 17.7 15.2 95 0.5 CALM 0 0 0 0 1024.6 1024.6 0.0
12/10:00pm 16.4 18.2 15.4 94 0.6 CALM 0 0 0 0 1024.7 1024.7 0.0
12/09:30pm 17.6 19.4 16.5 93 0.7 S 2 6 1 3 1024.8 1024.8 0.0
12/09:00pm 18.6 19.9 17.6 94 0.6 S 7 9 4 5 1024.8 1024.8 0.0
12/08:30pm 18.4 19.5 17.2 93 0.7 S 7 7 4 4 1024.8 1024.8 0.0
12/08:00pm 19.0 20.0 17.8 93 0.7 SSW 9 11 5 6 1024.8 1024.8 0.0
12/07:30pm 18.6 19.4 17.3 92 0.8 SW 9 11 5 6 1024.6 1024.6 0.0
12/07:00pm 17.5 18.9 15.5 88 1.2 NW 2 9 1 5 1024.2 1024.2 0.0
12/06:30pm 18.2 20.2 16.0 87 1.3 CALM 0 0 0 0 1023.6 1023.6 0.0
12/06:00pm 19.3 20.5 16.9 86 1.4 NNW 6 7 3 4 1023.8 1023.8 0.0
12/05:30pm 19.4 20.6 16.8 85 1.6 NNW 6 7 3 4 1023.6 1023.6 0.0
12/05:00pm 19.7 20.6 16.5 82 1.9 NW 7 9 4 5 1023.7 1023.7 0.0
12/04:30pm 20.7 21.8 17.1 80 2.2 NW 7 9 4 5 1023.6 1023.6 0.0
12/04:00pm 21.0 21.7 17.0 78 2.4 WNW 9 11 5 6 1023.8 1023.8 0.0
12/03:30pm 21.2 22.0 17.2 78 2.4 NW 9 13 5 7 1023.7 1023.7 0.0
12/03:00pm 21.4 21.9 17.4 78 2.4 WNW 11 15 6 8 1023.6 1023.6 0.0
12/02:30pm 21.9 21.9 18.1 79 2.4 W 15 17 8 9 1023.6 1023.6 0.0
12/02:00pm 21.5 22.6 17.9 80 2.2 NW 9 13 5 7 1023.3 1023.3 0.0

Other formats

Comma delimited format used in spreadsheet applications
http://www.bom.gov.au/fwo/IDW60801/IDW60801.95607.axf

JavaScript Object Notation format (JSON) in row-major order
http://www.bom.gov.au/fwo/IDW60801/IDW60801.95607.json

Data quality

Most of these data are generated automatically and are frequently updated. Quality checks on data are not normally performed. It is possible for incorrect values to appear. Refer to information at About Latest Weather Observations and please check the disclaimer before using these data.